sensor_id;sensor_type;location;lat;lon;timestamp;P1;durP1;ratioP1;P2;durP2;ratioP2
57025;SDS011;43961;52.940;6.834;2023-04-24T00:00:00;1.83;;;1.35;;
57025;SDS011;43961;52.940;6.834;2023-04-24T00:02:30;1.40;;;1.30;;
57025;SDS011;43961;52.940;6.834;2023-04-24T00:04:56;2.05;;;1.95;;
57025;SDS011;43961;52.940;6.834;2023-04-24T00:07:22;2.08;;;1.88;;
57025;SDS011;43961;52.940;6.834;2023-04-24T00:09:48;2.40;;;2.05;;
57025;SDS011;43961;52.940;6.834;2023-04-24T00:12:13;2.70;;;2.50;;
57025;SDS011;43961;52.940;6.834;2023-04-24T00:14:39;2.28;;;2.10;;
57025;SDS011;43961;52.940;6.834;2023-04-24T00:17:06;3.13;;;2.85;;
57025;SDS011;43961;52.940;6.834;2023-04-24T00:19:31;2.85;;;2.65;;
57025;SDS011;43961;52.940;6.834;2023-04-24T00:21:57;3.78;;;3.47;;
57025;SDS011;43961;52.940;6.834;2023-04-24T00:24:23;3.28;;;2.95;;
57025;SDS011;43961;52.940;6.834;2023-04-24T00:26:49;3.42;;;3.22;;
57025;SDS011;43961;52.940;6.834;2023-04-24T00:29:14;6.05;;;3.45;;
57025;SDS011;43961;52.940;6.834;2023-04-24T00:31:40;3.13;;;2.92;;
57025;SDS011;43961;52.940;6.834;2023-04-24T00:34:05;2.83;;;2.63;;
57025;SDS011;43961;52.940;6.834;2023-04-24T00:36:32;3.53;;;3.22;;
57025;SDS011;43961;52.940;6.834;2023-04-24T00:38:58;3.28;;;2.97;;
57025;SDS011;43961;52.940;6.834;2023-04-24T00:41:27;3.80;;;3.38;;
57025;SDS011;43961;52.940;6.834;2023-04-24T00:43:52;4.25;;;3.85;;
57025;SDS011;43961;52.940;6.834;2023-04-24T00:46:18;3.25;;;2.95;;
57025;SDS011;43961;52.940;6.834;2023-04-24T00:48:45;3.05;;;2.75;;
57025;SDS011;43961;52.940;6.834;2023-04-24T00:51:11;3.85;;;3.55;;
57025;SDS011;43961;52.940;6.834;2023-04-24T00:53:37;4.25;;;3.63;;
57025;SDS011;43961;52.940;6.834;2023-04-24T00:56:02;4.28;;;3.88;;
57025;SDS011;43961;52.940;6.834;2023-04-24T00:58:29;4.03;;;3.72;;
57025;SDS011;43961;52.940;6.834;2023-04-24T01:00:56;5.53;;;4.35;;
57025;SDS011;43961;52.940;6.834;2023-04-24T01:03:26;4.57;;;4.18;;
57025;SDS011;43961;52.940;6.834;2023-04-24T01:05:55;4.93;;;4.43;;
57025;SDS011;43961;52.940;6.834;2023-04-24T01:08:22;5.07;;;4.57;;
57025;SDS011;43961;52.940;6.834;2023-04-24T01:13:16;5.30;;;4.80;;
57025;SDS011;43961;52.940;6.834;2023-04-24T01:15:42;10.98;;;4.57;;
57025;SDS011;43961;52.940;6.834;2023-04-24T01:18:09;5.53;;;4.80;;
57025;SDS011;43961;52.940;6.834;2023-04-24T01:20:35;4.55;;;4.10;;
57025;SDS011;43961;52.940;6.834;2023-04-24T01:23:05;4.80;;;4.38;;
57025;SDS011;43961;52.940;6.834;2023-04-24T01:25:31;4.57;;;4.18;;
57025;SDS011;43961;52.940;6.834;2023-04-24T01:27:57;5.55;;;5.05;;
57025;SDS011;43961;52.940;6.834;2023-04-24T01:30:23;5.85;;;5.25;;
57025;SDS011;43961;52.940;6.834;2023-04-24T01:32:50;8.00;;;5.53;;
57025;SDS011;43961;52.940;6.834;2023-04-24T01:35:16;4.85;;;4.43;;
57025;SDS011;43961;52.940;6.834;2023-04-24T01:37:42;4.03;;;3.72;;
57025;SDS011;43961;52.940;6.834;2023-04-24T01:40:08;4.43;;;4.13;;
57025;SDS011;43961;52.940;6.834;2023-04-24T01:42:35;4.60;;;4.20;;
57025;SDS011;43961;52.940;6.834;2023-04-24T01:45:02;4.50;;;4.13;;
57025;SDS011;43961;52.940;6.834;2023-04-24T01:47:30;5.45;;;5.03;;
57025;SDS011;43961;52.940;6.834;2023-04-24T01:49:56;5.95;;;5.40;;
57025;SDS011;43961;52.940;6.834;2023-04-24T01:52:23;5.97;;;5.47;;
57025;SDS011;43961;52.940;6.834;2023-04-24T01:54:49;7.55;;;6.85;;
57025;SDS011;43961;52.940;6.834;2023-04-24T01:57:15;7.03;;;6.43;;
57025;SDS011;43961;52.940;6.834;2023-04-24T01:59:41;8.48;;;6.72;;
57025;SDS011;43961;52.940;6.834;2023-04-24T02:02:07;8.30;;;6.93;;
57025;SDS011;43961;52.940;6.834;2023-04-24T02:04:33;7.63;;;6.78;;
57025;SDS011;43961;52.940;6.834;2023-04-24T02:07:00;8.27;;;7.43;;
57025;SDS011;43961;52.940;6.834;2023-04-24T02:09:25;8.00;;;7.18;;
57025;SDS011;43961;52.940;6.834;2023-04-24T02:11:51;8.18;;;7.47;;
57025;SDS011;43961;52.940;6.834;2023-04-24T02:14:16;8.20;;;7.35;;
57025;SDS011;43961;52.940;6.834;2023-04-24T02:16:43;9.15;;;8.35;;
57025;SDS011;43961;52.940;6.834;2023-04-24T02:19:09;9.30;;;8.40;;
57025;SDS011;43961;52.940;6.834;2023-04-24T02:21:35;9.35;;;8.45;;
57025;SDS011;43961;52.940;6.834;2023-04-24T02:24:01;9.10;;;8.30;;
57025;SDS011;43961;52.940;6.834;2023-04-24T02:26:27;8.68;;;7.90;;
57025;SDS011;43961;52.940;6.834;2023-04-24T02:28:53;8.38;;;7.68;;
57025;SDS011;43961;52.940;6.834;2023-04-24T02:31:18;8.43;;;7.72;;
57025;SDS011;43961;52.940;6.834;2023-04-24T02:33:44;10.68;;;8.30;;
57025;SDS011;43961;52.940;6.834;2023-04-24T02:36:10;10.48;;;9.38;;
57025;SDS011;43961;52.940;6.834;2023-04-24T02:38:36;9.45;;;8.38;;
57025;SDS011;43961;52.940;6.834;2023-04-24T02:41:02;9.13;;;8.25;;
57025;SDS011;43961;52.940;6.834;2023-04-24T02:43:31;9.00;;;8.20;;
57025;SDS011;43961;52.940;6.834;2023-04-24T02:45:57;10.30;;;9.38;;
57025;SDS011;43961;52.940;6.834;2023-04-24T02:48:23;10.15;;;9.10;;
57025;SDS011;43961;52.940;6.834;2023-04-24T02:50:49;9.25;;;8.23;;
57025;SDS011;43961;52.940;6.834;2023-04-24T02:53:15;9.88;;;8.88;;
57025;SDS011;43961;52.940;6.834;2023-04-24T02:55:41;11.07;;;9.52;;
57025;SDS011;43961;52.940;6.834;2023-04-24T02:58:08;11.40;;;10.07;;
57025;SDS011;43961;52.940;6.834;2023-04-24T03:00:33;11.30;;;10.10;;
57025;SDS011;43961;52.940;6.834;2023-04-24T03:02:59;11.23;;;9.73;;
57025;SDS011;43961;52.940;6.834;2023-04-24T03:05:25;10.20;;;8.75;;
57025;SDS011;43961;52.940;6.834;2023-04-24T03:07:52;10.93;;;9.45;;
57025;SDS011;43961;52.940;6.834;2023-04-24T03:10:18;10.20;;;9.00;;
57025;SDS011;43961;52.940;6.834;2023-04-24T03:12:45;10.15;;;9.13;;
57025;SDS011;43961;52.940;6.834;2023-04-24T03:15:10;12.00;;;8.57;;
57025;SDS011;43961;52.940;6.834;2023-04-24T03:17:36;11.32;;;9.82;;
57025;SDS011;43961;52.940;6.834;2023-04-24T03:20:02;11.05;;;9.95;;
57025;SDS011;43961;52.940;6.834;2023-04-24T03:22:30;12.68;;;10.55;;
57025;SDS011;43961;52.940;6.834;2023-04-24T03:24:57;12.68;;;10.73;;
57025;SDS011;43961;52.940;6.834;2023-04-24T03:27:23;13.00;;;10.95;;
57025;SDS011;43961;52.940;6.834;2023-04-24T03:29:49;12.73;;;10.80;;
57025;SDS011;43961;52.940;6.834;2023-04-24T03:32:18;11.00;;;9.90;;
57025;SDS011;43961;52.940;6.834;2023-04-24T03:34:44;12.02;;;10.55;;
57025;SDS011;43961;52.940;6.834;2023-04-24T03:37:10;12.80;;;11.48;;
57025;SDS011;43961;52.940;6.834;2023-04-24T03:39:36;13.20;;;10.63;;
57025;SDS011;43961;52.940;6.834;2023-04-24T03:42:01;11.65;;;10.45;;
57025;SDS011;43961;52.940;6.834;2023-04-24T03:44:27;9.95;;;9.05;;
57025;SDS011;43961;52.940;6.834;2023-04-24T03:46:53;10.18;;;9.18;;
57025;SDS011;43961;52.940;6.834;2023-04-24T03:49:18;12.85;;;11.35;;
57025;SDS011;43961;52.940;6.834;2023-04-24T03:51:44;11.82;;;10.63;;
57025;SDS011;43961;52.940;6.834;2023-04-24T03:54:10;10.73;;;9.73;;
57025;SDS011;43961;52.940;6.834;2023-04-24T03:56:36;10.63;;;9.63;;
57025;SDS011;43961;52.940;6.834;2023-04-24T03:59:01;11.15;;;10.05;;
57025;SDS011;43961;52.940;6.834;2023-04-24T04:01:27;10.05;;;8.93;;
57025;SDS011;43961;52.940;6.834;2023-04-24T04:03:53;11.57;;;9.13;;
57025;SDS011;43961;52.940;6.834;2023-04-24T04:06:20;13.93;;;10.02;;
57025;SDS011;43961;52.940;6.834;2023-04-24T04:08:46;12.20;;;10.77;;
57025;SDS011;43961;52.940;6.834;2023-04-24T04:11:12;9.80;;;8.80;;
57025;SDS011;43961;52.940;6.834;2023-04-24T04:13:38;10.65;;;9.52;;
57025;SDS011;43961;52.940;6.834;2023-04-24T04:16:03;11.27;;;8.98;;
57025;SDS011;43961;52.940;6.834;2023-04-24T04:18:30;10.65;;;9.65;;
57025;SDS011;43961;52.940;6.834;2023-04-24T04:20:56;9.75;;;8.82;;
57025;SDS011;43961;52.940;6.834;2023-04-24T04:23:22;10.48;;;9.25;;
57025;SDS011;43961;52.940;6.834;2023-04-24T04:25:48;10.77;;;9.30;;
57025;SDS011;43961;52.940;6.834;2023-04-24T04:28:15;10.90;;;9.35;;
57025;SDS011;43961;52.940;6.834;2023-04-24T04:30:40;8.73;;;7.82;;
57025;SDS011;43961;52.940;6.834;2023-04-24T04:33:06;10.18;;;9.18;;
57025;SDS011;43961;52.940;6.834;2023-04-24T04:35:33;10.98;;;9.02;;
57025;SDS011;43961;52.940;6.834;2023-04-24T04:37:58;10.73;;;9.63;;
57025;SDS011;43961;52.940;6.834;2023-04-24T04:40:24;12.07;;;9.23;;
57025;SDS011;43961;52.940;6.834;2023-04-24T04:42:50;11.60;;;9.55;;
57025;SDS011;43961;52.940;6.834;2023-04-24T04:45:18;11.40;;;10.05;;
57025;SDS011;43961;52.940;6.834;2023-04-24T04:47:45;10.67;;;9.57;;
57025;SDS011;43961;52.940;6.834;2023-04-24T04:50:11;14.73;;;10.05;;
57025;SDS011;43961;52.940;6.834;2023-04-24T04:52:37;11.48;;;9.57;;
57025;SDS011;43961;52.940;6.834;2023-04-24T04:55:03;12.35;;;9.90;;
57025;SDS011;43961;52.940;6.834;2023-04-24T04:57:30;10.23;;;8.98;;
57025;SDS011;43961;52.940;6.834;2023-04-24T04:59:56;11.98;;;9.63;;
57025;SDS011;43961;52.940;6.834;2023-04-24T05:02:21;11.95;;;9.88;;
57025;SDS011;43961;52.940;6.834;2023-04-24T05:04:47;10.07;;;8.93;;
57025;SDS011;43961;52.940;6.834;2023-04-24T05:07:13;10.45;;;9.45;;
57025;SDS011;43961;52.940;6.834;2023-04-24T05:09:38;10.73;;;9.60;;
57025;SDS011;43961;52.940;6.834;2023-04-24T05:12:04;10.80;;;8.90;;
57025;SDS011;43961;52.940;6.834;2023-04-24T05:14:30;9.85;;;8.77;;
57025;SDS011;43961;52.940;6.834;2023-04-24T05:16:56;12.10;;;9.40;;
57025;SDS011;43961;52.940;6.834;2023-04-24T05:19:22;11.50;;;9.40;;
57025;SDS011;43961;52.940;6.834;2023-04-24T05:21:47;9.52;;;8.20;;
57025;SDS011;43961;52.940;6.834;2023-04-24T05:24:13;10.23;;;7.60;;
57025;SDS011;43961;52.940;6.834;2023-04-24T05:26:39;8.45;;;7.57;;
57025;SDS011;43961;52.940;6.834;2023-04-24T05:29:05;12.18;;;9.60;;
57025;SDS011;43961;52.940;6.834;2023-04-24T05:31:31;10.18;;;8.60;;
57025;SDS011;43961;52.940;6.834;2023-04-24T05:33:57;8.25;;;7.43;;
57025;SDS011;43961;52.940;6.834;2023-04-24T05:36:23;12.65;;;8.55;;
57025;SDS011;43961;52.940;6.834;2023-04-24T05:38:48;8.75;;;6.97;;
57025;SDS011;43961;52.940;6.834;2023-04-24T05:41:14;9.32;;;7.75;;
57025;SDS011;43961;52.940;6.834;2023-04-24T05:43:40;9.07;;;7.55;;
57025;SDS011;43961;52.940;6.834;2023-04-24T05:46:05;9.40;;;7.20;;
57025;SDS011;43961;52.940;6.834;2023-04-24T05:48:31;11.18;;;7.85;;
57025;SDS011;43961;52.940;6.834;2023-04-24T05:50:57;10.18;;;8.30;;
57025;SDS011;43961;52.940;6.834;2023-04-24T05:53:22;9.43;;;8.43;;
57025;SDS011;43961;52.940;6.834;2023-04-24T05:55:48;7.68;;;6.57;;
57025;SDS011;43961;52.940;6.834;2023-04-24T05:58:14;8.80;;;7.90;;
57025;SDS011;43961;52.940;6.834;2023-04-24T06:00:40;9.52;;;6.85;;
57025;SDS011;43961;52.940;6.834;2023-04-24T06:03:07;10.35;;;8.57;;
57025;SDS011;43961;52.940;6.834;2023-04-24T06:05:34;8.25;;;7.20;;
57025;SDS011;43961;52.940;6.834;2023-04-24T06:08:00;8.27;;;7.38;;
57025;SDS011;43961;52.940;6.834;2023-04-24T06:10:25;8.60;;;7.15;;
57025;SDS011;43961;52.940;6.834;2023-04-24T06:12:51;10.52;;;7.03;;
57025;SDS011;43961;52.940;6.834;2023-04-24T06:15:17;7.57;;;6.63;;
57025;SDS011;43961;52.940;6.834;2023-04-24T06:17:42;7.75;;;6.07;;
57025;SDS011;43961;52.940;6.834;2023-04-24T06:20:08;8.38;;;6.82;;
57025;SDS011;43961;52.940;6.834;2023-04-24T06:22:36;9.43;;;6.80;;
57025;SDS011;43961;52.940;6.834;2023-04-24T06:25:01;8.02;;;6.22;;
57025;SDS011;43961;52.940;6.834;2023-04-24T06:27:27;6.32;;;5.72;;
57025;SDS011;43961;52.940;6.834;2023-04-24T06:29:53;7.13;;;5.10;;
57025;SDS011;43961;52.940;6.834;2023-04-24T06:32:22;5.70;;;5.03;;
57025;SDS011;43961;52.940;6.834;2023-04-24T06:34:49;6.03;;;5.35;;
57025;SDS011;43961;52.940;6.834;2023-04-24T06:37:15;6.03;;;5.40;;
57025;SDS011;43961;52.940;6.834;2023-04-24T06:39:43;6.53;;;5.47;;
57025;SDS011;43961;52.940;6.834;2023-04-24T06:42:09;10.85;;;4.32;;
57025;SDS011;43961;52.940;6.834;2023-04-24T06:44:35;5.28;;;4.78;;
57025;SDS011;43961;52.940;6.834;2023-04-24T06:47:14;5.15;;;4.63;;
57025;SDS011;43961;52.940;6.834;2023-04-24T06:49:40;5.35;;;4.50;;
57025;SDS011;43961;52.940;6.834;2023-04-24T06:52:06;6.40;;;4.38;;
57025;SDS011;43961;52.940;6.834;2023-04-24T06:54:32;5.85;;;4.65;;
57025;SDS011;43961;52.940;6.834;2023-04-24T06:57:00;5.75;;;4.13;;
57025;SDS011;43961;52.940;6.834;2023-04-24T06:59:27;5.80;;;5.20;;
57025;SDS011;43961;52.940;6.834;2023-04-24T07:01:53;6.10;;;4.60;;
57025;SDS011;43961;52.940;6.834;2023-04-24T07:04:20;4.97;;;4.47;;
57025;SDS011;43961;52.940;6.834;2023-04-24T07:06:46;6.15;;;5.22;;
57025;SDS011;43961;52.940;6.834;2023-04-24T07:09:12;4.97;;;4.50;;
57025;SDS011;43961;52.940;6.834;2023-04-24T07:11:39;4.13;;;3.72;;
57025;SDS011;43961;52.940;6.834;2023-04-24T07:14:06;5.35;;;4.30;;
57025;SDS011;43961;52.940;6.834;2023-04-24T07:16:32;5.47;;;4.47;;
57025;SDS011;43961;52.940;6.834;2023-04-24T07:18:58;6.00;;;5.22;;
57025;SDS011;43961;52.940;6.834;2023-04-24T07:21:23;6.63;;;4.43;;
57025;SDS011;43961;52.940;6.834;2023-04-24T07:23:50;5.55;;;4.95;;
57025;SDS011;43961;52.940;6.834;2023-04-24T07:26:16;4.68;;;4.25;;
57025;SDS011;43961;52.940;6.834;2023-04-24T07:28:43;4.53;;;3.72;;
57025;SDS011;43961;52.940;6.834;2023-04-24T07:31:08;6.32;;;4.75;;
57025;SDS011;43961;52.940;6.834;2023-04-24T07:33:35;4.88;;;4.30;;
57025;SDS011;43961;52.940;6.834;2023-04-24T07:36:01;7.10;;;5.63;;
57025;SDS011;43961;52.940;6.834;2023-04-24T07:38:29;5.47;;;4.57;;
57025;SDS011;43961;52.940;6.834;2023-04-24T07:40:55;6.60;;;4.85;;
57025;SDS011;43961;52.940;6.834;2023-04-24T07:43:21;7.22;;;5.60;;
57025;SDS011;43961;52.940;6.834;2023-04-24T07:45:48;8.60;;;6.65;;
57025;SDS011;43961;52.940;6.834;2023-04-24T07:48:17;7.20;;;6.05;;
57025;SDS011;43961;52.940;6.834;2023-04-24T07:50:43;7.63;;;6.85;;
57025;SDS011;43961;52.940;6.834;2023-04-24T07:53:09;7.13;;;6.00;;
57025;SDS011;43961;52.940;6.834;2023-04-24T07:55:35;7.85;;;5.53;;
57025;SDS011;43961;52.940;6.834;2023-04-24T07:58:01;12.35;;;5.95;;
57025;SDS011;43961;52.940;6.834;2023-04-24T08:00:27;6.07;;;5.32;;
57025;SDS011;43961;52.940;6.834;2023-04-24T08:02:53;4.38;;;3.97;;
57025;SDS011;43961;52.940;6.834;2023-04-24T08:05:18;6.65;;;3.70;;
57025;SDS011;43961;52.940;6.834;2023-04-24T08:07:45;9.02;;;3.50;;
57025;SDS011;43961;52.940;6.834;2023-04-24T08:10:13;3.90;;;3.08;;
57025;SDS011;43961;52.940;6.834;2023-04-24T08:12:41;7.85;;;4.28;;
57025;SDS011;43961;52.940;6.834;2023-04-24T08:15:07;4.63;;;4.00;;
57025;SDS011;43961;52.940;6.834;2023-04-24T08:17:34;12.40;;;11.40;;
57025;SDS011;43961;52.940;6.834;2023-04-24T08:20:04;6.67;;;4.60;;
57025;SDS011;43961;52.940;6.834;2023-04-24T08:22:30;3.97;;;3.47;;
57025;SDS011;43961;52.940;6.834;2023-04-24T08:24:56;5.75;;;4.10;;
57025;SDS011;43961;52.940;6.834;2023-04-24T08:27:23;6.13;;;4.65;;
57025;SDS011;43961;52.940;6.834;2023-04-24T08:29:50;6.13;;;3.88;;
57025;SDS011;43961;52.940;6.834;2023-04-24T08:32:17;3.53;;;3.17;;
57025;SDS011;43961;52.940;6.834;2023-04-24T08:34:44;4.75;;;3.35;;
57025;SDS011;43961;52.940;6.834;2023-04-24T08:37:10;8.70;;;3.78;;
57025;SDS011;43961;52.940;6.834;2023-04-24T08:39:36;7.18;;;4.38;;
57025;SDS011;43961;52.940;6.834;2023-04-24T08:42:02;13.35;;;4.10;;
57025;SDS011;43961;52.940;6.834;2023-04-24T08:44:34;8.80;;;5.22;;
57025;SDS011;43961;52.940;6.834;2023-04-24T08:49:27;16.48;;;9.75;;
57025;SDS011;43961;52.940;6.834;2023-04-24T08:51:53;15.95;;;11.45;;
57025;SDS011;43961;52.940;6.834;2023-04-24T08:54:19;19.90;;;12.32;;
57025;SDS011;43961;52.940;6.834;2023-04-24T08:56:48;21.65;;;13.57;;
57025;SDS011;43961;52.940;6.834;2023-04-24T08:59:15;25.88;;;14.48;;
57025;SDS011;43961;52.940;6.834;2023-04-24T09:01:41;27.65;;;14.70;;
57025;SDS011;43961;52.940;6.834;2023-04-24T09:04:08;26.50;;;14.75;;
57025;SDS011;43961;52.940;6.834;2023-04-24T09:06:38;28.15;;;19.20;;
57025;SDS011;43961;52.940;6.834;2023-04-24T09:09:04;34.28;;;20.25;;
57025;SDS011;43961;52.940;6.834;2023-04-24T09:11:31;31.40;;;18.73;;
57025;SDS011;43961;52.940;6.834;2023-04-24T09:14:00;34.10;;;18.17;;
57025;SDS011;43961;52.940;6.834;2023-04-24T09:16:26;26.65;;;19.00;;
57025;SDS011;43961;52.940;6.834;2023-04-24T09:18:52;38.58;;;20.95;;
57025;SDS011;43961;52.940;6.834;2023-04-24T09:21:20;29.92;;;19.95;;
57025;SDS011;43961;52.940;6.834;2023-04-24T09:23:47;37.42;;;21.40;;
57025;SDS011;43961;52.940;6.834;2023-04-24T09:26:24;34.33;;;20.25;;
57025;SDS011;43961;52.940;6.834;2023-04-24T09:28:50;32.35;;;19.35;;
57025;SDS011;43961;52.940;6.834;2023-04-24T09:31:16;30.40;;;19.60;;
57025;SDS011;43961;52.940;6.834;2023-04-24T09:34:20;35.13;;;19.77;;
57025;SDS011;43961;52.940;6.834;2023-04-24T09:36:39;40.72;;;19.23;;
57025;SDS011;43961;52.940;6.834;2023-04-24T09:41:45;39.28;;;21.70;;
57025;SDS011;43961;52.940;6.834;2023-04-24T09:44:15;36.92;;;19.98;;
57025;SDS011;43961;52.940;6.834;2023-04-24T09:46:43;30.00;;;21.55;;
57025;SDS011;43961;52.940;6.834;2023-04-24T09:49:12;32.55;;;22.80;;
57025;SDS011;43961;52.940;6.834;2023-04-24T09:51:40;35.28;;;21.85;;
57025;SDS011;43961;52.940;6.834;2023-04-24T09:54:16;30.92;;;21.63;;
57025;SDS011;43961;52.940;6.834;2023-04-24T09:56:46;33.65;;;23.77;;
57025;SDS011;43961;52.940;6.834;2023-04-24T09:59:13;32.92;;;20.83;;
57025;SDS011;43961;52.940;6.834;2023-04-24T10:01:40;32.25;;;21.27;;
57025;SDS011;43961;52.940;6.834;2023-04-24T10:04:19;29.55;;;20.05;;
57025;SDS011;43961;52.940;6.834;2023-04-24T10:06:50;24.08;;;18.23;;
57025;SDS011;43961;52.940;6.834;2023-04-24T10:09:17;27.38;;;18.15;;
57025;SDS011;43961;52.940;6.834;2023-04-24T10:11:44;37.15;;;17.95;;
57025;SDS011;43961;52.940;6.834;2023-04-24T10:14:15;29.20;;;19.25;;
57025;SDS011;43961;52.940;6.834;2023-04-24T10:16:43;28.58;;;19.00;;
57025;SDS011;43961;52.940;6.834;2023-04-24T10:19:12;28.30;;;17.60;;
57025;SDS011;43961;52.940;6.834;2023-04-24T10:21:39;22.92;;;16.85;;
57025;SDS011;43961;52.940;6.834;2023-04-24T10:24:15;31.33;;;17.45;;
57025;SDS011;43961;52.940;6.834;2023-04-24T10:26:43;29.08;;;17.23;;
57025;SDS011;43961;52.940;6.834;2023-04-24T10:29:10;23.30;;;16.70;;
57025;SDS011;43961;52.940;6.834;2023-04-24T10:31:37;24.75;;;16.83;;
57025;SDS011;43961;52.940;6.834;2023-04-24T10:34:07;26.00;;;18.20;;
57025;SDS011;43961;52.940;6.834;2023-04-24T10:36:35;31.13;;;16.77;;
57025;SDS011;43961;52.940;6.834;2023-04-24T10:39:08;27.38;;;14.90;;
57025;SDS011;43961;52.940;6.834;2023-04-24T10:41:38;21.90;;;16.33;;
57025;SDS011;43961;52.940;6.834;2023-04-24T10:44:04;24.48;;;17.67;;
57025;SDS011;43961;52.940;6.834;2023-04-24T10:46:35;24.60;;;15.05;;
57025;SDS011;43961;52.940;6.834;2023-04-24T10:49:04;21.13;;;14.20;;
57025;SDS011;43961;52.940;6.834;2023-04-24T10:51:52;31.25;;;14.32;;
57025;SDS011;43961;52.940;6.834;2023-04-24T10:54:35;22.60;;;12.98;;
57025;SDS011;43961;52.940;6.834;2023-04-24T10:59:44;13.55;;;10.35;;
57025;SDS011;43961;52.940;6.834;2023-04-24T11:02:13;22.05;;;10.73;;
57025;SDS011;43961;52.940;6.834;2023-04-24T11:04:40;15.52;;;9.80;;
57025;SDS011;43961;52.940;6.834;2023-04-24T11:07:08;17.25;;;9.30;;
57025;SDS011;43961;52.940;6.834;2023-04-24T11:09:36;25.83;;;10.05;;
57025;SDS011;43961;52.940;6.834;2023-04-24T11:12:04;18.20;;;9.23;;
57025;SDS011;43961;52.940;6.834;2023-04-24T11:17:36;12.05;;;7.95;;
57025;SDS011;43961;52.940;6.834;2023-04-24T11:20:04;31.73;;;7.00;;
57025;SDS011;43961;52.940;6.834;2023-04-24T11:22:37;12.07;;;7.32;;
57025;SDS011;43961;52.940;6.834;2023-04-24T11:25:07;12.20;;;7.55;;
57025;SDS011;43961;52.940;6.834;2023-04-24T11:27:43;22.67;;;8.02;;
57025;SDS011;43961;52.940;6.834;2023-04-24T11:30:12;12.93;;;7.93;;
57025;SDS011;43961;52.940;6.834;2023-04-24T11:32:50;11.90;;;7.57;;
57025;SDS011;43961;52.940;6.834;2023-04-24T11:35:18;12.07;;;7.03;;
57025;SDS011;43961;52.940;6.834;2023-04-24T11:37:50;13.60;;;6.72;;
57025;SDS011;43961;52.940;6.834;2023-04-24T11:40:19;19.85;;;7.40;;
57025;SDS011;43961;52.940;6.834;2023-04-24T11:42:51;9.93;;;6.35;;
57025;SDS011;43961;52.940;6.834;2023-04-24T11:45:22;15.50;;;6.47;;
57025;SDS011;43961;52.940;6.834;2023-04-24T11:47:53;14.30;;;6.22;;
57025;SDS011;43961;52.940;6.834;2023-04-24T11:50:19;13.13;;;5.88;;
57025;SDS011;43961;52.940;6.834;2023-04-24T11:52:48;11.27;;;5.90;;
57025;SDS011;43961;52.940;6.834;2023-04-24T11:57:44;7.05;;;5.13;;
57025;SDS011;43961;52.940;6.834;2023-04-24T12:00:15;16.02;;;6.60;;
57025;SDS011;43961;52.940;6.834;2023-04-24T12:02:45;13.57;;;6.05;;
57025;SDS011;43961;52.940;6.834;2023-04-24T12:05:24;15.38;;;6.50;;
57025;SDS011;43961;52.940;6.834;2023-04-24T12:07:52;8.10;;;5.78;;
57025;SDS011;43961;52.940;6.834;2023-04-24T12:10:25;9.07;;;5.40;;
57025;SDS011;43961;52.940;6.834;2023-04-24T12:12:52;10.85;;;5.05;;
57025;SDS011;43961;52.940;6.834;2023-04-24T12:15:19;15.90;;;4.93;;
57025;SDS011;43961;52.940;6.834;2023-04-24T12:17:45;15.15;;;5.47;;
57025;SDS011;43961;52.940;6.834;2023-04-24T12:20:12;14.43;;;5.22;;
57025;SDS011;43961;52.940;6.834;2023-04-24T12:22:55;5.63;;;4.25;;
57025;SDS011;43961;52.940;6.834;2023-04-24T12:25:23;9.07;;;4.30;;
57025;SDS011;43961;52.940;6.834;2023-04-24T12:27:54;10.60;;;5.03;;
57025;SDS011;43961;52.940;6.834;2023-04-24T12:30:30;7.90;;;4.72;;
57025;SDS011;43961;52.940;6.834;2023-04-24T12:32:58;5.18;;;4.07;;
57025;SDS011;43961;52.940;6.834;2023-04-24T12:35:27;11.50;;;5.30;;
57025;SDS011;43961;52.940;6.834;2023-04-24T12:37:53;8.32;;;4.97;;
57025;SDS011;43961;52.940;6.834;2023-04-24T12:40:20;7.75;;;4.47;;
57025;SDS011;43961;52.940;6.834;2023-04-24T12:42:50;7.70;;;4.30;;
57025;SDS011;43961;52.940;6.834;2023-04-24T12:45:19;5.43;;;4.15;;
57025;SDS011;43961;52.940;6.834;2023-04-24T12:47:48;12.38;;;4.80;;
57025;SDS011;43961;52.940;6.834;2023-04-24T12:50:14;9.60;;;4.30;;
57025;SDS011;43961;52.940;6.834;2023-04-24T12:52:40;15.35;;;4.70;;
57025;SDS011;43961;52.940;6.834;2023-04-24T12:55:07;5.78;;;3.92;;
57025;SDS011;43961;52.940;6.834;2023-04-24T12:57:35;8.90;;;3.83;;
57025;SDS011;43961;52.940;6.834;2023-04-24T13:00:02;4.47;;;3.23;;
57025;SDS011;43961;52.940;6.834;2023-04-24T13:02:30;46.05;;;4.72;;
57025;SDS011;43961;52.940;6.834;2023-04-24T13:04:56;25.60;;;4.28;;
57025;SDS011;43961;52.940;6.834;2023-04-24T13:07:23;9.05;;;4.10;;
57025;SDS011;43961;52.940;6.834;2023-04-24T13:09:51;7.65;;;4.95;;
57025;SDS011;43961;52.940;6.834;2023-04-24T13:14:43;11.15;;;4.05;;
57025;SDS011;43961;52.940;6.834;2023-04-24T13:17:08;10.52;;;3.13;;
57025;SDS011;43961;52.940;6.834;2023-04-24T13:19:36;4.65;;;2.55;;
57025;SDS011;43961;52.940;6.834;2023-04-24T13:22:02;7.35;;;3.33;;
57025;SDS011;43961;52.940;6.834;2023-04-24T13:24:29;13.20;;;3.40;;
57025;SDS011;43961;52.940;6.834;2023-04-24T13:26:56;8.13;;;2.83;;
57025;SDS011;43961;52.940;6.834;2023-04-24T13:29:22;3.60;;;2.80;;
57025;SDS011;43961;52.940;6.834;2023-04-24T13:31:49;8.15;;;2.92;;
57025;SDS011;43961;52.940;6.834;2023-04-24T13:34:16;5.63;;;3.03;;
57025;SDS011;43961;52.940;6.834;2023-04-24T13:36:42;9.27;;;3.58;;
57025;SDS011;43961;52.940;6.834;2023-04-24T13:39:08;8.18;;;3.67;;
57025;SDS011;43961;52.940;6.834;2023-04-24T13:41:36;5.50;;;2.50;;
57025;SDS011;43961;52.940;6.834;2023-04-24T13:44:02;11.45;;;3.45;;
57025;SDS011;43961;52.940;6.834;2023-04-24T13:46:29;9.13;;;3.08;;
57025;SDS011;43961;52.940;6.834;2023-04-24T13:48:55;6.18;;;3.05;;
57025;SDS011;43961;52.940;6.834;2023-04-24T13:51:21;4.53;;;2.92;;
57025;SDS011;43961;52.940;6.834;2023-04-24T13:53:47;4.88;;;2.85;;
57025;SDS011;43961;52.940;6.834;2023-04-24T13:56:13;7.78;;;2.42;;
57025;SDS011;43961;52.940;6.834;2023-04-24T13:58:39;5.85;;;2.63;;
57025;SDS011;43961;52.940;6.834;2023-04-24T14:01:05;5.68;;;2.50;;
57025;SDS011;43961;52.940;6.834;2023-04-24T14:03:31;5.60;;;3.13;;
57025;SDS011;43961;52.940;6.834;2023-04-24T14:05:59;7.88;;;3.65;;
57025;SDS011;43961;52.940;6.834;2023-04-24T14:08:25;6.45;;;2.95;;
57025;SDS011;43961;52.940;6.834;2023-04-24T14:10:50;7.57;;;2.55;;
57025;SDS011;43961;52.940;6.834;2023-04-24T14:13:16;5.10;;;2.33;;
57025;SDS011;43961;52.940;6.834;2023-04-24T14:15:42;13.30;;;2.58;;
57025;SDS011;43961;52.940;6.834;2023-04-24T14:18:08;6.93;;;2.33;;
57025;SDS011;43961;52.940;6.834;2023-04-24T14:20:34;7.28;;;2.47;;
57025;SDS011;43961;52.940;6.834;2023-04-24T14:23:00;9.73;;;3.25;;
57025;SDS011;43961;52.940;6.834;2023-04-24T14:25:26;4.38;;;2.20;;
57025;SDS011;43961;52.940;6.834;2023-04-24T14:27:52;6.00;;;2.35;;
57025;SDS011;43961;52.940;6.834;2023-04-24T14:30:18;3.13;;;2.30;;
57025;SDS011;43961;52.940;6.834;2023-04-24T14:32:44;4.97;;;2.72;;
57025;SDS011;43961;52.940;6.834;2023-04-24T14:35:10;7.40;;;2.60;;
57025;SDS011;43961;52.940;6.834;2023-04-24T14:37:36;4.15;;;3.05;;
57025;SDS011;43961;52.940;6.834;2023-04-24T14:40:02;5.10;;;2.53;;
57025;SDS011;43961;52.940;6.834;2023-04-24T14:42:30;6.50;;;2.60;;
57025;SDS011;43961;52.940;6.834;2023-04-24T14:44:55;6.32;;;3.13;;
57025;SDS011;43961;52.940;6.834;2023-04-24T14:47:21;9.18;;;3.45;;
57025;SDS011;43961;52.940;6.834;2023-04-24T14:49:47;16.90;;;4.22;;
57025;SDS011;43961;52.940;6.834;2023-04-24T14:52:13;5.70;;;2.83;;
57025;SDS011;43961;52.940;6.834;2023-04-24T14:54:39;7.10;;;3.80;;